createdAt,value
2023-02-13T00:00:48.138Z,30.92
2023-02-13T00:03:16.960Z,30.95
2023-02-13T00:05:44.378Z,31.27
2023-02-13T00:08:12.749Z,31.25
2023-02-13T00:10:40.128Z,30.08
2023-02-13T00:13:07.574Z,32.20
2023-02-13T00:15:37.437Z,30.85
2023-02-13T00:18:05.064Z,30.98
2023-02-13T00:20:32.554Z,32.03
2023-02-13T00:23:00.400Z,32.33
2023-02-13T00:25:28.176Z,31.77
2023-02-13T00:27:56.948Z,32.10
2023-02-13T00:30:24.293Z,31.98
2023-02-13T00:32:51.667Z,32.22
2023-02-13T00:35:19.508Z,31.77
2023-02-13T00:37:47.123Z,33.25
2023-02-13T00:40:14.676Z,32.35
2023-02-13T00:42:42.069Z,32.47
2023-02-13T00:45:09.965Z,32.17
2023-02-13T00:47:37.367Z,31.65
2023-02-13T00:50:06.184Z,32.60
2023-02-13T00:52:33.853Z,32.20
2023-02-13T00:55:01.829Z,33.05
2023-02-13T00:57:32.142Z,35.38
2023-02-13T00:59:59.939Z,33.50
2023-02-13T01:02:27.649Z,33.97
2023-02-13T01:04:57.028Z,33.65
2023-02-13T01:07:24.525Z,31.00
2023-02-13T01:09:53.395Z,32.85
2023-02-13T01:12:20.827Z,32.10
2023-02-13T01:14:48.814Z,32.33
2023-02-13T01:17:17.100Z,32.42
2023-02-13T01:19:44.564Z,31.00
2023-02-13T01:22:12.848Z,32.75
2023-02-13T01:24:40.287Z,32.67
2023-02-13T01:27:07.729Z,32.88
2023-02-13T01:29:35.519Z,30.88
2023-02-13T01:32:05.544Z,31.92
2023-02-13T01:34:34.022Z,31.58
2023-02-13T01:37:01.900Z,31.70
2023-02-13T01:39:29.737Z,31.67
2023-02-13T01:41:57.234Z,31.80
2023-02-13T01:44:54.940Z,31.58
2023-02-13T01:47:40.472Z,31.50
2023-02-13T01:50:16.694Z,31.77
2023-02-13T01:52:56.119Z,32.60
2023-02-13T01:55:24.972Z,31.92
2023-02-13T01:57:59.572Z,32.35
2023-02-13T02:00:27.612Z,30.65
2023-02-13T02:03:02.621Z,32.03
2023-02-13T02:05:38.922Z,31.55
2023-02-13T02:08:13.333Z,31.58
2023-02-13T02:10:41.038Z,30.92
2023-02-13T02:13:20.762Z,31.42
2023-02-13T02:15:50.479Z,31.83
2023-02-13T02:18:23.632Z,32.45
2023-02-13T02:21:08.868Z,29.83
2023-02-13T02:23:42.061Z,31.17
2023-02-13T02:26:39.792Z,30.63
2023-02-13T02:29:13.155Z,31.45
2023-02-13T02:32:09.637Z,31.45
2023-02-13T02:34:51.966Z,31.88
2023-02-13T02:37:30.641Z,31.53
2023-02-13T02:40:36.241Z,30.02
2023-02-13T02:43:18.837Z,30.50
2023-02-13T02:46:01.851Z,29.83
2023-02-13T02:49:04.259Z,30.63
2023-02-13T02:51:43.526Z,30.23
2023-02-13T02:54:51.258Z,29.83
2023-02-13T02:57:48.839Z,29.35
2023-02-13T03:00:38.163Z,29.90
2023-02-13T03:03:50.325Z,29.90
2023-02-13T03:06:29.736Z,29.58
2023-02-13T03:09:20.555Z,30.02
2023-02-13T03:12:10.274Z,30.10
2023-02-13T03:14:38.192Z,29.92
2023-02-13T03:17:25.729Z,31.13
2023-02-13T03:20:23.394Z,29.58
2023-02-13T03:23:06.137Z,29.63
2023-02-13T03:25:51.501Z,30.77
2023-02-13T03:28:59.389Z,29.80
2023-02-13T03:31:35.617Z,30.40
2023-02-13T03:34:07.643Z,30.27
2023-02-13T03:37:20.129Z,28.60
2023-02-13T03:40:01.446Z,31.60
2023-02-13T03:42:46.019Z,29.60
2023-02-13T03:45:37.656Z,29.90
2023-02-13T03:48:09.936Z,29.00
2023-02-13T03:50:53.221Z,30.50
2023-02-13T03:56:12.893Z,29.73
2023-02-13T03:59:04.521Z,30.75
2023-02-13T04:01:35.514Z,29.38
2023-02-13T04:04:42.035Z,30.80
2023-02-13T04:07:46.886Z,32.08
2023-02-13T04:14:05.404Z,29.60
2023-02-13T04:19:28.259Z,30.95
2023-02-13T04:22:03.235Z,30.98
2023-02-13T04:24:31.039Z,31.83
2023-02-13T04:27:00.543Z,32.00
2023-02-13T04:29:38.186Z,32.10
2023-02-13T04:32:09.889Z,30.42
2023-02-13T04:37:48.017Z,32.45
2023-02-13T04:40:24.526Z,32.03
2023-02-13T04:42:55.696Z,32.35
2023-02-13T04:45:23.664Z,31.65
2023-02-13T04:47:52.608Z,32.03
2023-02-13T04:50:23.690Z,32.20
2023-02-13T04:52:59.207Z,31.00
2023-02-13T04:55:28.438Z,32.00
2023-02-13T04:58:06.968Z,33.08
2023-02-13T05:00:45.483Z,32.97
2023-02-13T05:03:14.009Z,32.90
2023-02-13T05:05:45.627Z,31.67
2023-02-13T05:08:16.558Z,31.90
2023-02-13T05:10:44.387Z,33.20
2023-02-13T05:13:14.945Z,31.58
2023-02-13T05:15:43.502Z,33.00
2023-02-13T05:18:13.353Z,32.55
2023-02-13T05:20:42.491Z,32.42
2023-02-13T05:23:24.448Z,33.25
2023-02-13T05:25:55.153Z,32.88
2023-02-13T05:28:40.984Z,33.75
2023-02-13T05:31:13.405Z,32.25
2023-02-13T05:33:42.265Z,33.70
2023-02-13T05:36:10.816Z,34.50
2023-02-13T05:38:41.759Z,33.65
2023-02-13T05:41:11.337Z,34.13
2023-02-13T05:43:43.061Z,33.75
2023-02-13T05:46:20.797Z,34.75
2023-02-13T05:49:20.157Z,33.72
2023-02-13T05:51:47.817Z,33.40
2023-02-13T05:54:20.805Z,34.28
2023-02-13T05:56:51.082Z,34.33
2023-02-13T05:59:28.123Z,35.72
2023-02-13T06:01:57.400Z,35.58
2023-02-13T06:04:26.465Z,34.10
2023-02-13T06:06:54.695Z,35.13
2023-02-13T06:09:23.187Z,35.70
2023-02-13T06:11:53.590Z,36.30
2023-02-13T06:14:22.281Z,35.00
2023-02-13T06:16:50.631Z,37.50
2023-02-13T06:19:18.064Z,36.53
2023-02-13T06:21:46.414Z,36.08
2023-02-13T06:24:13.971Z,35.17
2023-02-13T06:26:41.294Z,36.22
2023-02-13T06:29:09.900Z,35.33
2023-02-13T06:31:43.797Z,36.90
2023-02-13T06:34:11.359Z,35.47
2023-02-13T06:36:39.127Z,37.20
2023-02-13T06:39:06.566Z,35.42
2023-02-13T06:41:34.174Z,37.53
2023-02-13T06:44:01.549Z,38.58
2023-02-13T06:46:29.052Z,37.35
2023-02-13T06:48:57.042Z,37.70
2023-02-13T06:51:24.858Z,38.70
2023-02-13T06:53:52.273Z,40.00
2023-02-13T06:56:19.918Z,40.83
2023-02-13T06:58:48.712Z,37.10
2023-02-13T07:01:17.465Z,40.15
2023-02-13T07:03:46.258Z,41.08
2023-02-13T07:06:19.331Z,40.55
2023-02-13T07:08:47.901Z,41.42
2023-02-13T07:11:19.812Z,44.65
2023-02-13T07:13:47.600Z,40.80
2023-02-13T07:16:15.472Z,42.80
2023-02-13T07:18:43.059Z,43.03
2023-02-13T07:21:10.661Z,43.63
2023-02-13T07:23:38.100Z,41.42
2023-02-13T07:26:07.440Z,43.08
2023-02-13T07:28:38.224Z,44.75
2023-02-13T07:31:07.016Z,45.05
2023-02-13T07:33:35.330Z,46.70
2023-02-13T07:36:03.733Z,46.95
2023-02-13T07:38:34.368Z,46.72
2023-02-13T07:41:03.498Z,46.25
2023-02-13T07:43:31.173Z,46.00
2023-02-13T07:46:09.678Z,45.55
2023-02-13T07:48:39.558Z,45.90
2023-02-13T07:51:25.275Z,45.85
2023-02-13T07:54:13.470Z,46.03
2023-02-13T07:56:42.557Z,48.53
2023-02-13T07:59:12.032Z,46.05
2023-02-13T08:01:39.748Z,46.53
2023-02-13T08:04:07.194Z,45.88
2023-02-13T08:06:35.200Z,45.78
2023-02-13T08:09:21.376Z,45.47
2023-02-13T08:11:54.760Z,44.70
2023-02-13T08:14:24.154Z,46.28
2023-02-13T08:16:53.729Z,46.35
2023-02-13T08:19:21.313Z,46.97
2023-02-13T08:21:48.802Z,46.45
2023-02-13T08:24:16.500Z,47.78
2023-02-13T08:26:44.115Z,47.75
2023-02-13T08:29:11.803Z,46.33
2023-02-13T08:31:39.687Z,45.50
2023-02-13T08:34:07.142Z,46.80
2023-02-13T08:36:34.541Z,47.03
2023-02-13T08:39:01.938Z,46.03
2023-02-13T08:41:29.315Z,46.63
2023-02-13T08:43:56.794Z,45.78
2023-02-13T08:46:24.360Z,47.33
2023-02-13T08:48:51.836Z,48.00
2023-02-13T08:51:21.846Z,47.85
2023-02-13T08:53:49.222Z,48.90
2023-02-13T08:56:16.973Z,46.63
2023-02-13T08:58:44.462Z,46.70
2023-02-13T09:01:15.033Z,47.03
2023-02-13T09:03:42.584Z,46.80
2023-02-13T09:06:10.030Z,48.10
2023-02-13T09:08:37.396Z,47.15
2023-02-13T09:11:08.158Z,46.00
2023-02-13T09:13:39.143Z,45.83
2023-02-13T09:16:07.745Z,46.60
2023-02-13T09:18:36.537Z,47.00
2023-02-13T09:21:13.267Z,48.03
2023-02-13T09:23:41.197Z,45.20
2023-02-13T09:26:12.680Z,47.20
2023-02-13T09:28:43.394Z,46.20
2023-02-13T09:31:16.632Z,47.35
2023-02-13T09:33:48.799Z,46.58
2023-02-13T09:36:21.536Z,46.87
2023-02-13T09:38:53.301Z,48.90
2023-02-13T09:41:31.074Z,51.95
2023-02-13T09:44:35.980Z,49.10
2023-02-13T09:47:12.334Z,51.00
2023-02-13T09:49:46.831Z,49.45
2023-02-13T09:58:21.984Z,50.50
2023-02-13T10:00:56.074Z,47.03
2023-02-13T10:03:40.449Z,47.95
2023-02-13T10:06:22.058Z,44.95
2023-02-13T10:09:03.108Z,44.95
2023-02-13T10:11:52.222Z,44.35
2023-02-13T10:14:25.926Z,42.63
2023-02-13T10:16:53.266Z,42.88
2023-02-13T10:19:42.451Z,43.42
2023-02-13T10:22:18.982Z,42.75
2023-02-13T10:24:53.610Z,39.95
2023-02-13T10:27:24.977Z,41.05
2023-02-13T10:30:12.443Z,40.53
2023-02-13T10:33:26.224Z,38.33
2023-02-13T10:38:33.580Z,37.45
2023-02-13T10:41:19.107Z,37.05
2023-02-13T10:43:53.897Z,34.95
2023-02-13T10:46:45.684Z,31.25
2023-02-13T10:49:31.553Z,31.58
2023-02-13T10:52:28.887Z,29.55
2023-02-13T10:55:22.460Z,33.38
2023-02-13T10:58:12.867Z,30.27
2023-02-13T11:00:56.700Z,27.52
2023-02-13T11:03:38.439Z,28.60
2023-02-13T11:06:16.339Z,27.65
2023-02-13T11:08:59.827Z,25.70
2023-02-13T11:12:18.161Z,24.58
2023-02-13T11:15:03.611Z,24.77
2023-02-13T11:17:37.831Z,25.80
2023-02-13T11:20:28.820Z,24.45
2023-02-13T11:23:00.735Z,25.05
2023-02-13T11:25:41.255Z,26.33
2023-02-13T11:28:32.426Z,24.75
2023-02-13T11:31:30.608Z,23.02
2023-02-13T11:34:03.101Z,23.80
2023-02-13T11:36:34.267Z,21.35
2023-02-13T11:45:37.557Z,19.42
2023-02-13T11:48:11.221Z,20.27
2023-02-13T11:50:46.411Z,19.80
2023-02-13T11:53:28.509Z,19.00
2023-02-13T11:56:26.300Z,18.42
2023-02-13T11:59:10.016Z,19.23
2023-02-13T12:01:39.540Z,20.53
2023-02-13T12:04:33.087Z,21.65
2023-02-13T12:07:31.218Z,20.45
2023-02-13T12:10:36.301Z,18.90
2023-02-13T12:16:32.070Z,19.10
2023-02-13T12:22:14.997Z,19.00
2023-02-13T12:25:45.672Z,19.85
2023-02-13T12:28:54.294Z,19.98
2023-02-13T12:32:02.711Z,20.38
2023-02-13T12:38:27.793Z,20.80
2023-02-13T12:41:26.908Z,21.20
2023-02-13T12:44:06.905Z,22.00
2023-02-13T12:47:11.395Z,22.17
2023-02-13T12:50:04.201Z,20.42
2023-02-13T12:52:57.492Z,22.00
2023-02-13T12:58:38.799Z,21.55
2023-02-13T13:01:31.803Z,21.67
2023-02-13T13:04:33.908Z,22.45
2023-02-13T13:07:28.488Z,20.30
2023-02-13T13:10:27.003Z,19.95
2023-02-13T13:13:32.902Z,20.45
2023-02-13T13:16:20.282Z,20.60
2023-02-13T13:18:58.030Z,20.15
2023-02-13T13:21:55.772Z,20.38
2023-02-13T13:24:32.614Z,21.27
2023-02-13T13:27:01.811Z,21.88
2023-02-13T13:29:48.836Z,20.95
2023-02-13T13:32:19.879Z,21.80
2023-02-13T13:34:49.309Z,21.48
2023-02-13T13:37:22.906Z,22.20
2023-02-13T13:40:17.207Z,22.08
2023-02-13T13:42:55.766Z,19.67
2023-02-13T13:45:26.828Z,20.45
2023-02-13T13:48:15.690Z,19.50
2023-02-13T13:50:45.104Z,20.52
2023-02-13T13:53:19.696Z,19.65
2023-02-13T13:55:53.896Z,20.00
2023-02-13T13:58:46.325Z,20.42
2023-02-13T14:01:32.933Z,19.87
2023-02-13T14:04:05.726Z,19.23
2023-02-13T14:06:45.420Z,20.83
2023-02-13T14:09:28.191Z,20.15
2023-02-13T14:11:59.759Z,20.58
2023-02-13T14:14:33.179Z,21.52
2023-02-13T14:17:04.136Z,20.23
2023-02-13T14:19:35.369Z,20.23
2023-02-13T14:22:56.876Z,19.60
2023-02-13T14:25:37.549Z,19.67
2023-02-13T14:28:52.485Z,19.23
2023-02-13T14:31:42.911Z,18.65
2023-02-13T14:34:18.368Z,18.60
2023-02-13T14:37:05.017Z,18.27
2023-02-13T14:39:41.702Z,17.38
2023-02-13T14:42:28.763Z,18.35
2023-02-13T14:45:08.129Z,16.75
2023-02-13T14:48:05.834Z,17.30
2023-02-13T14:50:54.919Z,17.20
2023-02-13T14:53:31.127Z,16.92
2023-02-13T14:56:08.127Z,16.98
2023-02-13T14:58:40.823Z,16.20
2023-02-13T15:01:45.416Z,16.55
2023-02-13T15:04:43.933Z,16.20
2023-02-13T15:11:34.659Z,17.05
2023-02-13T15:14:37.497Z,15.68
2023-02-13T15:17:40.293Z,16.50
2023-02-13T15:20:27.686Z,16.53
2023-02-13T15:23:02.062Z,15.68
2023-02-13T15:25:40.482Z,15.07
2023-02-13T15:28:15.903Z,15.75
2023-02-13T15:31:04.846Z,15.85
2023-02-13T15:33:52.383Z,16.23
2023-02-13T15:36:25.530Z,16.67
2023-02-13T15:39:09.674Z,16.20
2023-02-13T15:41:41.434Z,16.25
2023-02-13T15:44:14.106Z,15.27
2023-02-13T15:46:42.210Z,16.55
2023-02-13T15:49:14.708Z,15.63
2023-02-13T15:51:44.498Z,16.67
2023-02-13T15:54:27.270Z,16.48
2023-02-13T15:56:57.309Z,15.55
2023-02-13T15:59:30.731Z,16.25
2023-02-13T16:05:20.044Z,15.52
2023-02-13T16:08:03.134Z,16.60
2023-02-13T16:13:49.948Z,15.70
2023-02-13T16:16:20.131Z,16.85
2023-02-13T16:19:12.706Z,16.45
2023-02-13T16:21:51.946Z,16.75
2023-02-13T16:27:33.053Z,16.52
2023-02-13T16:30:17.995Z,18.33
2023-02-13T16:32:50.489Z,17.90
2023-02-13T16:36:05.176Z,17.48
2023-02-13T16:38:56.353Z,17.40
2023-02-13T16:41:34.103Z,18.52
2023-02-13T16:44:35.928Z,18.85
2023-02-13T16:47:34.175Z,19.40
2023-02-13T16:50:12.965Z,20.30
2023-02-13T16:52:43.475Z,21.23
2023-02-13T17:03:54.740Z,21.05
2023-02-13T17:06:38.519Z,20.20
2023-02-13T17:20:37.605Z,20.83
2023-02-13T17:25:52.863Z,20.15
2023-02-13T17:28:40.083Z,20.65
2023-02-13T17:31:12.150Z,20.63
2023-02-13T17:33:41.421Z,20.40
2023-02-13T17:36:12.558Z,21.75
2023-02-13T17:38:40.263Z,29.40
2023-02-13T17:41:14.883Z,29.13
2023-02-13T17:43:42.249Z,23.95
2023-02-13T17:46:09.656Z,21.10
2023-02-13T17:48:37.063Z,21.20
2023-02-13T17:51:04.796Z,22.35
2023-02-13T17:53:32.584Z,21.33
2023-02-13T17:55:59.973Z,21.63
2023-02-13T17:58:27.363Z,21.10
2023-02-13T18:00:54.709Z,21.30
2023-02-13T18:03:22.474Z,21.08
2023-02-13T18:05:50.393Z,21.05
2023-02-13T18:08:18.032Z,21.48
2023-02-13T18:10:45.414Z,21.58
2023-02-13T18:13:13.051Z,21.35
2023-02-13T18:15:43.436Z,22.17
2023-02-13T18:18:12.330Z,21.08
2023-02-13T18:20:39.782Z,21.67
2023-02-13T18:23:07.312Z,21.60
2023-02-13T18:25:34.969Z,21.60
2023-02-13T18:28:02.556Z,22.88
2023-02-13T18:30:33.049Z,22.73
2023-02-13T18:33:05.017Z,23.80
2023-02-13T18:35:33.376Z,23.97
2023-02-13T18:38:00.757Z,24.15
2023-02-13T18:40:30.678Z,24.00
2023-02-13T18:42:58.149Z,23.55
2023-02-13T18:45:25.584Z,23.42
2023-02-13T18:47:52.932Z,23.35
2023-02-13T18:50:20.400Z,22.77
2023-02-13T18:52:47.831Z,23.20
2023-02-13T18:55:15.402Z,23.90
2023-02-13T18:57:43.608Z,22.95
2023-02-13T19:00:14.007Z,22.33
2023-02-13T19:02:41.410Z,23.60
2023-02-13T19:05:08.947Z,25.35
2023-02-13T19:07:36.826Z,24.80
2023-02-13T19:10:04.339Z,25.75
2023-02-13T19:12:31.719Z,23.60
2023-02-13T19:15:01.435Z,24.80
2023-02-13T19:17:28.828Z,24.25
2023-02-13T19:19:56.178Z,25.05
2023-02-13T19:22:23.810Z,23.65
2023-02-13T19:24:51.622Z,23.88
2023-02-13T19:27:21.409Z,24.15
2023-02-13T19:29:49.158Z,24.35
2023-02-13T19:32:16.583Z,28.50
2023-02-13T19:34:44.102Z,27.20
2023-02-13T19:37:11.576Z,28.05
2023-02-13T19:39:39.066Z,27.23
2023-02-13T19:42:06.462Z,26.08
2023-02-13T19:44:33.759Z,26.13
2023-02-13T19:47:01.161Z,25.48
2023-02-13T19:49:28.543Z,25.75
2023-02-13T19:51:56.020Z,24.08
2023-02-13T19:54:23.482Z,25.10
2023-02-13T19:56:51.036Z,25.15
2023-02-13T19:59:18.412Z,26.98
2023-02-13T20:01:46.061Z,26.25
2023-02-13T20:04:13.552Z,26.80
2023-02-13T20:06:41.043Z,25.73
2023-02-13T20:09:11.988Z,25.88
2023-02-13T20:11:41.418Z,25.10
2023-02-13T20:14:14.416Z,25.90
2023-02-13T20:19:12.252Z,26.98
2023-02-13T20:21:41.524Z,27.02
2023-02-13T20:24:09.840Z,24.90
2023-02-13T20:26:37.459Z,26.95
2023-02-13T20:29:05.055Z,27.25
2023-02-13T20:31:36.359Z,27.08
2023-02-13T20:34:06.699Z,26.83
2023-02-13T20:36:34.570Z,27.58
2023-02-13T20:39:04.081Z,26.77
2023-02-13T20:41:34.119Z,27.75
2023-02-13T20:44:04.482Z,26.80
2023-02-13T20:46:33.498Z,26.90
2023-02-13T20:49:00.979Z,27.92
2023-02-13T20:51:28.529Z,28.33
2023-02-13T20:53:56.395Z,28.15
2023-02-13T20:56:25.262Z,29.52
2023-02-13T20:58:55.551Z,30.42
2023-02-13T21:01:29.279Z,31.77
2023-02-13T21:03:57.096Z,30.58
2023-02-13T21:06:43.880Z,30.60
2023-02-13T21:09:11.878Z,30.55
2023-02-13T21:11:44.388Z,31.08
2023-02-13T21:14:12.883Z,31.58
2023-02-13T21:16:41.463Z,31.65
2023-02-13T21:19:16.246Z,32.45
2023-02-13T21:21:45.261Z,32.03
2023-02-13T21:24:19.010Z,31.95
2023-02-13T21:26:47.536Z,32.92
2023-02-13T21:29:15.012Z,33.35
2023-02-13T21:31:48.756Z,31.27
2023-02-13T21:34:17.965Z,32.28
2023-02-13T21:36:46.037Z,32.22
2023-02-13T21:39:16.801Z,32.05
2023-02-13T21:41:47.552Z,32.70
2023-02-13T21:44:19.009Z,30.52
2023-02-13T21:46:46.537Z,31.35
2023-02-13T21:49:16.853Z,29.75
2023-02-13T21:51:44.445Z,31.92
2023-02-13T21:54:12.467Z,32.63
2023-02-13T21:56:42.232Z,32.95
2023-02-13T21:59:10.984Z,31.88
2023-02-13T22:01:40.767Z,31.58
2023-02-13T22:04:09.667Z,31.10
2023-02-13T22:06:39.337Z,30.98
2023-02-13T22:09:07.777Z,31.10
2023-02-13T22:11:39.907Z,29.05
2023-02-13T22:14:10.712Z,29.92
2023-02-13T22:16:39.157Z,29.95
2023-02-13T22:19:07.640Z,29.98
2023-02-13T22:21:36.795Z,29.15
2023-02-13T22:24:04.690Z,30.60
2023-02-13T22:26:34.416Z,30.50
2023-02-13T22:29:07.416Z,29.73
2023-02-13T22:31:35.650Z,32.33
2023-02-13T22:34:05.386Z,31.55
2023-02-13T22:36:34.715Z,30.10
2023-02-13T22:39:02.427Z,28.90
2023-02-13T22:41:29.887Z,30.35
2023-02-13T22:43:58.074Z,30.23
2023-02-13T22:46:31.288Z,29.25
2023-02-13T22:48:59.416Z,27.63
2023-02-13T22:51:29.667Z,26.80
2023-02-13T22:53:58.450Z,29.83
2023-02-13T22:56:29.971Z,30.92
2023-02-13T22:58:57.787Z,33.53
2023-02-13T23:01:26.506Z,31.67
2023-02-13T23:03:54.753Z,31.70
2023-02-13T23:06:22.541Z,32.50
2023-02-13T23:08:52.775Z,27.85
2023-02-13T23:11:40.900Z,29.67
2023-02-13T23:14:08.527Z,28.35
2023-02-13T23:16:55.926Z,28.48
2023-02-13T23:19:25.374Z,28.10
2023-02-13T23:21:52.836Z,28.30
2023-02-13T23:24:20.165Z,30.30
2023-02-13T23:26:47.630Z,29.50
2023-02-13T23:29:14.987Z,28.95
2023-02-13T23:31:42.429Z,26.52
2023-02-13T23:34:09.886Z,25.35
2023-02-13T23:36:37.344Z,24.20
2023-02-13T23:39:04.843Z,24.10
2023-02-13T23:41:32.195Z,25.27
2023-02-13T23:43:59.505Z,25.90
2023-02-13T23:46:28.014Z,24.73
2023-02-13T23:48:55.429Z,25.13
2023-02-13T23:51:23.210Z,25.50
2023-02-13T23:53:53.242Z,25.58
2023-02-13T23:56:21.177Z,25.20
2023-02-13T23:58:48.590Z,26.75
